sensor_id;sensor_type;location;lat;lon;timestamp;temperature;humidity
20712;DHT22;10517;50.742;4.224;2022-08-24T00:01:11;20.60;99.90
20712;DHT22;10517;50.742;4.224;2022-08-24T00:03:39;20.60;99.90
20712;DHT22;10517;50.742;4.224;2022-08-24T00:06:08;20.70;99.90
20712;DHT22;10517;50.742;4.224;2022-08-24T00:08:36;20.60;99.90
20712;DHT22;10517;50.742;4.224;2022-08-24T00:11:02;20.50;99.90
20712;DHT22;10517;50.742;4.224;2022-08-24T00:13:28;20.50;99.90
20712;DHT22;10517;50.742;4.224;2022-08-24T00:15:54;20.50;99.90
20712;DHT22;10517;50.742;4.224;2022-08-24T00:18:21;20.50;99.90
20712;DHT22;10517;50.742;4.224;2022-08-24T00:20:47;20.40;99.90
20712;DHT22;10517;50.742;4.224;2022-08-24T00:23:13;20.30;99.90
20712;DHT22;10517;50.742;4.224;2022-08-24T00:25:39;20.30;99.90
20712;DHT22;10517;50.742;4.224;2022-08-24T00:28:05;20.40;99.90
20712;DHT22;10517;50.742;4.224;2022-08-24T00:30:31;20.40;99.90
20712;DHT22;10517;50.742;4.224;2022-08-24T00:32:57;20.30;99.90
20712;DHT22;10517;50.742;4.224;2022-08-24T00:35:23;20.30;99.90
20712;DHT22;10517;50.742;4.224;2022-08-24T00:37:50;20.30;99.90
20712;DHT22;10517;50.742;4.224;2022-08-24T00:40:23;20.30;99.90
20712;DHT22;10517;50.742;4.224;2022-08-24T00:42:49;20.20;99.90
20712;DHT22;10517;50.742;4.224;2022-08-24T00:45:17;20.20;99.90
20712;DHT22;10517;50.742;4.224;2022-08-24T00:48:04;20.20;99.90
20712;DHT22;10517;50.742;4.224;2022-08-24T00:50:46;20.10;99.90
20712;DHT22;10517;50.742;4.224;2022-08-24T00:53:22;20.20;99.90
20712;DHT22;10517;50.742;4.224;2022-08-24T00:55:53;20.40;99.90
20712;DHT22;10517;50.742;4.224;2022-08-24T00:58:25;20.30;99.90
20712;DHT22;10517;50.742;4.224;2022-08-24T01:00:58;20.20;99.90
20712;DHT22;10517;50.742;4.224;2022-08-24T01:03:25;20.10;99.90
20712;DHT22;10517;50.742;4.224;2022-08-24T01:05:52;20.10;99.90
20712;DHT22;10517;50.742;4.224;2022-08-24T01:08:18;20.10;99.90
20712;DHT22;10517;50.742;4.224;2022-08-24T01:11:00;20.10;99.90
20712;DHT22;10517;50.742;4.224;2022-08-24T01:13:27;20.10;99.90
20712;DHT22;10517;50.742;4.224;2022-08-24T01:15:56;20.00;99.90
20712;DHT22;10517;50.742;4.224;2022-08-24T01:18:24;19.90;99.90
20712;DHT22;10517;50.742;4.224;2022-08-24T01:21:15;19.90;99.90
20712;DHT22;10517;50.742;4.224;2022-08-24T01:23:51;19.90;99.90
20712;DHT22;10517;50.742;4.224;2022-08-24T01:26:24;19.90;99.90
20712;DHT22;10517;50.742;4.224;2022-08-24T01:28:54;19.90;99.90
20712;DHT22;10517;50.742;4.224;2022-08-24T01:31:23;19.80;99.90
20712;DHT22;10517;50.742;4.224;2022-08-24T01:33:51;19.80;99.90
20712;DHT22;10517;50.742;4.224;2022-08-24T01:38:47;19.80;99.90
20712;DHT22;10517;50.742;4.224;2022-08-24T01:41:13;19.70;99.90
20712;DHT22;10517;50.742;4.224;2022-08-24T01:43:39;19.70;99.90
20712;DHT22;10517;50.742;4.224;2022-08-24T01:46:05;19.60;99.90
20712;DHT22;10517;50.742;4.224;2022-08-24T01:48:31;19.60;99.90
20712;DHT22;10517;50.742;4.224;2022-08-24T01:50:56;19.60;99.90
20712;DHT22;10517;50.742;4.224;2022-08-24T01:53:22;19.60;99.90
20712;DHT22;10517;50.742;4.224;2022-08-24T01:55:48;19.50;99.90
20712;DHT22;10517;50.742;4.224;2022-08-24T01:58:14;19.50;99.90
20712;DHT22;10517;50.742;4.224;2022-08-24T02:00:40;19.50;99.90
20712;DHT22;10517;50.742;4.224;2022-08-24T02:03:06;19.50;99.90
20712;DHT22;10517;50.742;4.224;2022-08-24T02:05:31;19.50;99.90
20712;DHT22;10517;50.742;4.224;2022-08-24T02:07:57;19.50;99.90
20712;DHT22;10517;50.742;4.224;2022-08-24T02:10:24;19.40;99.90
20712;DHT22;10517;50.742;4.224;2022-08-24T02:12:50;19.40;99.90
20712;DHT22;10517;50.742;4.224;2022-08-24T02:15:34;19.40;99.90
20712;DHT22;10517;50.742;4.224;2022-08-24T02:18:04;19.50;99.90
20712;DHT22;10517;50.742;4.224;2022-08-24T02:20:30;19.40;99.90
20712;DHT22;10517;50.742;4.224;2022-08-24T02:22:56;19.30;99.90
20712;DHT22;10517;50.742;4.224;2022-08-24T02:25:22;19.30;99.90
20712;DHT22;10517;50.742;4.224;2022-08-24T02:27:48;19.30;99.90
20712;DHT22;10517;50.742;4.224;2022-08-24T02:30:15;19.30;99.90
20712;DHT22;10517;50.742;4.224;2022-08-24T02:32:41;19.30;99.90
20712;DHT22;10517;50.742;4.224;2022-08-24T02:35:07;19.20;99.90
20712;DHT22;10517;50.742;4.224;2022-08-24T02:37:33;19.20;99.90
20712;DHT22;10517;50.742;4.224;2022-08-24T02:39:58;19.10;99.90
20712;DHT22;10517;50.742;4.224;2022-08-24T02:42:24;19.20;99.90
20712;DHT22;10517;50.742;4.224;2022-08-24T02:44:50;19.30;99.90
20712;DHT22;10517;50.742;4.224;2022-08-24T02:47:15;19.20;99.90
20712;DHT22;10517;50.742;4.224;2022-08-24T02:49:42;19.10;99.90
20712;DHT22;10517;50.742;4.224;2022-08-24T02:52:07;19.10;99.90
20712;DHT22;10517;50.742;4.224;2022-08-24T02:54:33;19.10;99.90
20712;DHT22;10517;50.742;4.224;2022-08-24T02:56:59;19.20;99.90
20712;DHT22;10517;50.742;4.224;2022-08-24T02:59:24;19.20;99.90
20712;DHT22;10517;50.742;4.224;2022-08-24T03:01:50;19.10;99.90
20712;DHT22;10517;50.742;4.224;2022-08-24T03:04:17;19.00;99.90
20712;DHT22;10517;50.742;4.224;2022-08-24T03:06:43;18.90;99.90
20712;DHT22;10517;50.742;4.224;2022-08-24T03:09:09;18.90;99.90
20712;DHT22;10517;50.742;4.224;2022-08-24T03:11:35;18.80;99.90
20712;DHT22;10517;50.742;4.224;2022-08-24T03:14:00;18.80;99.90
20712;DHT22;10517;50.742;4.224;2022-08-24T03:16:27;18.80;99.90
20712;DHT22;10517;50.742;4.224;2022-08-24T03:18:53;18.80;99.90
20712;DHT22;10517;50.742;4.224;2022-08-24T03:21:19;18.70;99.90
20712;DHT22;10517;50.742;4.224;2022-08-24T03:23:45;18.80;99.90
20712;DHT22;10517;50.742;4.224;2022-08-24T03:26:11;18.80;99.90
20712;DHT22;10517;50.742;4.224;2022-08-24T03:28:37;18.70;99.90
20712;DHT22;10517;50.742;4.224;2022-08-24T03:31:03;18.70;99.90
20712;DHT22;10517;50.742;4.224;2022-08-24T03:33:28;18.70;99.90
20712;DHT22;10517;50.742;4.224;2022-08-24T03:35:54;18.70;99.90
20712;DHT22;10517;50.742;4.224;2022-08-24T03:38:20;18.70;99.90
20712;DHT22;10517;50.742;4.224;2022-08-24T03:40:47;18.70;99.90
20712;DHT22;10517;50.742;4.224;2022-08-24T03:43:13;18.60;99.90
20712;DHT22;10517;50.742;4.224;2022-08-24T03:46:00;18.60;99.90
20712;DHT22;10517;50.742;4.224;2022-08-24T03:48:28;18.60;99.90
20712;DHT22;10517;50.742;4.224;2022-08-24T03:50:54;18.60;99.90
20712;DHT22;10517;50.742;4.224;2022-08-24T03:53:20;18.60;99.90
20712;DHT22;10517;50.742;4.224;2022-08-24T03:55:45;18.60;99.90
20712;DHT22;10517;50.742;4.224;2022-08-24T03:58:11;18.50;99.90
20712;DHT22;10517;50.742;4.224;2022-08-24T04:00:37;18.50;99.90
20712;DHT22;10517;50.742;4.224;2022-08-24T04:03:04;18.50;99.90
20712;DHT22;10517;50.742;4.224;2022-08-24T04:05:30;18.50;99.90
20712;DHT22;10517;50.742;4.224;2022-08-24T04:07:56;18.50;99.90
20712;DHT22;10517;50.742;4.224;2022-08-24T04:10:21;18.50;99.90
20712;DHT22;10517;50.742;4.224;2022-08-24T04:12:47;18.40;99.90
20712;DHT22;10517;50.742;4.224;2022-08-24T04:15:13;18.40;99.90
20712;DHT22;10517;50.742;4.224;2022-08-24T04:17:39;18.40;99.90
20712;DHT22;10517;50.742;4.224;2022-08-24T04:20:05;18.40;99.90
20712;DHT22;10517;50.742;4.224;2022-08-24T04:22:31;18.30;99.90
20712;DHT22;10517;50.742;4.224;2022-08-24T04:25:01;18.40;99.90
20712;DHT22;10517;50.742;4.224;2022-08-24T04:27:26;18.30;99.90
20712;DHT22;10517;50.742;4.224;2022-08-24T04:29:52;18.30;99.90
20712;DHT22;10517;50.742;4.224;2022-08-24T04:32:18;18.30;99.90
20712;DHT22;10517;50.742;4.224;2022-08-24T04:34:43;18.30;99.90
20712;DHT22;10517;50.742;4.224;2022-08-24T04:37:10;18.30;99.90
20712;DHT22;10517;50.742;4.224;2022-08-24T04:39:36;18.30;99.90
20712;DHT22;10517;50.742;4.224;2022-08-24T04:42:01;18.30;99.90
20712;DHT22;10517;50.742;4.224;2022-08-24T04:44:27;18.30;99.90
20712;DHT22;10517;50.742;4.224;2022-08-24T04:46:54;18.30;99.90
20712;DHT22;10517;50.742;4.224;2022-08-24T04:49:21;18.20;99.90
20712;DHT22;10517;50.742;4.224;2022-08-24T04:51:46;18.20;99.90
20712;DHT22;10517;50.742;4.224;2022-08-24T04:54:12;18.20;99.90
20712;DHT22;10517;50.742;4.224;2022-08-24T04:56:37;18.20;99.90
20712;DHT22;10517;50.742;4.224;2022-08-24T04:59:04;18.20;99.90
20712;DHT22;10517;50.742;4.224;2022-08-24T05:01:30;18.10;99.90
20712;DHT22;10517;50.742;4.224;2022-08-24T05:03:57;18.20;99.90
20712;DHT22;10517;50.742;4.224;2022-08-24T05:06:25;18.10;99.90
20712;DHT22;10517;50.742;4.224;2022-08-24T05:08:51;18.10;99.90
20712;DHT22;10517;50.742;4.224;2022-08-24T05:11:18;18.00;99.90
20712;DHT22;10517;50.742;4.224;2022-08-24T05:13:44;18.00;99.90
20712;DHT22;10517;50.742;4.224;2022-08-24T05:16:19;18.10;99.90
20712;DHT22;10517;50.742;4.224;2022-08-24T05:18:45;18.10;99.90
20712;DHT22;10517;50.742;4.224;2022-08-24T05:21:13;18.20;99.90
20712;DHT22;10517;50.742;4.224;2022-08-24T05:23:39;18.20;99.90
20712;DHT22;10517;50.742;4.224;2022-08-24T05:26:11;18.30;99.90
20712;DHT22;10517;50.742;4.224;2022-08-24T05:28:37;18.30;99.90
20712;DHT22;10517;50.742;4.224;2022-08-24T05:31:24;18.50;99.90
20712;DHT22;10517;50.742;4.224;2022-08-24T05:33:50;18.60;99.90
20712;DHT22;10517;50.742;4.224;2022-08-24T05:36:22;18.80;99.90
20712;DHT22;10517;50.742;4.224;2022-08-24T05:38:49;19.00;99.90
20712;DHT22;10517;50.742;4.224;2022-08-24T05:41:16;19.10;99.90
20712;DHT22;10517;50.742;4.224;2022-08-24T05:43:42;19.20;99.90
20712;DHT22;10517;50.742;4.224;2022-08-24T05:46:08;19.40;99.90
20712;DHT22;10517;50.742;4.224;2022-08-24T05:48:34;19.50;99.90
20712;DHT22;10517;50.742;4.224;2022-08-24T05:51:00;19.60;99.90
20712;DHT22;10517;50.742;4.224;2022-08-24T05:53:26;19.70;99.90
20712;DHT22;10517;50.742;4.224;2022-08-24T05:55:51;19.90;99.90
20712;DHT22;10517;50.742;4.224;2022-08-24T05:58:18;20.00;99.90
20712;DHT22;10517;50.742;4.224;2022-08-24T06:00:45;20.20;99.90
20712;DHT22;10517;50.742;4.224;2022-08-24T06:03:14;20.30;99.90
20712;DHT22;10517;50.742;4.224;2022-08-24T06:05:41;20.50;99.90
20712;DHT22;10517;50.742;4.224;2022-08-24T06:08:08;20.60;99.90
20712;DHT22;10517;50.742;4.224;2022-08-24T06:10:45;20.70;99.90
20712;DHT22;10517;50.742;4.224;2022-08-24T06:13:12;20.80;99.90
20712;DHT22;10517;50.742;4.224;2022-08-24T06:15:39;20.90;99.90
20712;DHT22;10517;50.742;4.224;2022-08-24T06:18:06;21.00;99.90
20712;DHT22;10517;50.742;4.224;2022-08-24T06:20:36;21.00;99.90
20712;DHT22;10517;50.742;4.224;2022-08-24T06:23:03;21.10;99.90
20712;DHT22;10517;50.742;4.224;2022-08-24T06:25:28;21.10;99.90
20712;DHT22;10517;50.742;4.224;2022-08-24T06:28:12;21.20;99.90
20712;DHT22;10517;50.742;4.224;2022-08-24T06:30:38;21.30;99.90
20712;DHT22;10517;50.742;4.224;2022-08-24T06:33:04;21.40;99.90
20712;DHT22;10517;50.742;4.224;2022-08-24T06:35:30;21.50;99.90
20712;DHT22;10517;50.742;4.224;2022-08-24T06:37:55;21.50;99.90
20712;DHT22;10517;50.742;4.224;2022-08-24T06:40:21;21.60;99.90
20712;DHT22;10517;50.742;4.224;2022-08-24T06:42:48;21.60;99.90
20712;DHT22;10517;50.742;4.224;2022-08-24T06:45:14;21.60;99.90
20712;DHT22;10517;50.742;4.224;2022-08-24T06:47:40;21.60;99.90
20712;DHT22;10517;50.742;4.224;2022-08-24T06:50:06;21.70;99.90
20712;DHT22;10517;50.742;4.224;2022-08-24T06:52:34;21.80;99.90
20712;DHT22;10517;50.742;4.224;2022-08-24T06:55:00;21.80;99.90
20712;DHT22;10517;50.742;4.224;2022-08-24T06:57:25;22.00;99.90
20712;DHT22;10517;50.742;4.224;2022-08-24T06:59:52;22.00;99.90
20712;DHT22;10517;50.742;4.224;2022-08-24T07:02:18;22.00;99.90
20712;DHT22;10517;50.742;4.224;2022-08-24T07:04:45;22.10;99.90
20712;DHT22;10517;50.742;4.224;2022-08-24T07:07:11;22.20;99.90
20712;DHT22;10517;50.742;4.224;2022-08-24T07:09:37;22.20;99.90
20712;DHT22;10517;50.742;4.224;2022-08-24T07:12:04;22.30;99.90
20712;DHT22;10517;50.742;4.224;2022-08-24T07:14:30;22.20;99.90
20712;DHT22;10517;50.742;4.224;2022-08-24T07:16:56;22.30;99.90
20712;DHT22;10517;50.742;4.224;2022-08-24T07:19:21;22.40;99.90
20712;DHT22;10517;50.742;4.224;2022-08-24T07:21:47;22.40;99.90
20712;DHT22;10517;50.742;4.224;2022-08-24T07:24:13;22.50;99.90
20712;DHT22;10517;50.742;4.224;2022-08-24T07:26:39;22.60;99.90
20712;DHT22;10517;50.742;4.224;2022-08-24T07:29:09;22.70;99.90
20712;DHT22;10517;50.742;4.224;2022-08-24T07:31:38;22.90;99.90
20712;DHT22;10517;50.742;4.224;2022-08-24T07:34:05;23.00;99.90
20712;DHT22;10517;50.742;4.224;2022-08-24T07:36:32;23.00;99.90
20712;DHT22;10517;50.742;4.224;2022-08-24T07:38:58;23.20;99.90
20712;DHT22;10517;50.742;4.224;2022-08-24T07:41:24;23.30;99.90
20712;DHT22;10517;50.742;4.224;2022-08-24T07:43:50;23.40;99.90
20712;DHT22;10517;50.742;4.224;2022-08-24T07:46:16;23.50;99.90
20712;DHT22;10517;50.742;4.224;2022-08-24T07:48:42;23.70;99.90
20712;DHT22;10517;50.742;4.224;2022-08-24T07:51:14;23.80;99.90
20712;DHT22;10517;50.742;4.224;2022-08-24T07:53:40;24.00;99.90
20712;DHT22;10517;50.742;4.224;2022-08-24T07:56:06;24.00;99.90
20712;DHT22;10517;50.742;4.224;2022-08-24T07:58:32;23.90;99.90
20712;DHT22;10517;50.742;4.224;2022-08-24T08:00:58;23.70;99.90
20712;DHT22;10517;50.742;4.224;2022-08-24T08:03:24;23.50;99.90
20712;DHT22;10517;50.742;4.224;2022-08-24T08:05:58;23.30;99.90
20712;DHT22;10517;50.742;4.224;2022-08-24T08:08:25;23.30;99.90
20712;DHT22;10517;50.742;4.224;2022-08-24T08:10:51;23.50;99.90
20712;DHT22;10517;50.742;4.224;2022-08-24T08:13:16;23.60;99.90
20712;DHT22;10517;50.742;4.224;2022-08-24T08:15:43;23.50;99.90
20712;DHT22;10517;50.742;4.224;2022-08-24T08:18:08;23.50;99.90
20712;DHT22;10517;50.742;4.224;2022-08-24T08:20:36;23.50;99.90
20712;DHT22;10517;50.742;4.224;2022-08-24T08:23:02;23.40;99.90
20712;DHT22;10517;50.742;4.224;2022-08-24T08:25:51;23.40;99.90
20712;DHT22;10517;50.742;4.224;2022-08-24T08:28:17;23.40;99.90
20712;DHT22;10517;50.742;4.224;2022-08-24T08:30:46;23.50;99.90
20712;DHT22;10517;50.742;4.224;2022-08-24T08:33:12;23.60;99.90
20712;DHT22;10517;50.742;4.224;2022-08-24T08:35:38;23.90;99.90
20712;DHT22;10517;50.742;4.224;2022-08-24T08:38:05;24.00;99.90
20712;DHT22;10517;50.742;4.224;2022-08-24T08:41:07;24.10;99.90
20712;DHT22;10517;50.742;4.224;2022-08-24T08:43:41;24.10;99.90
20712;DHT22;10517;50.742;4.224;2022-08-24T08:54:43;24.10;99.90
20712;DHT22;10517;50.742;4.224;2022-08-24T08:57:44;24.10;99.90
20712;DHT22;10517;50.742;4.224;2022-08-24T09:00:21;24.40;99.90
20712;DHT22;10517;50.742;4.224;2022-08-24T09:14:17;25.00;99.90
20712;DHT22;10517;50.742;4.224;2022-08-24T09:22:24;25.60;99.90
20712;DHT22;10517;50.742;4.224;2022-08-24T09:30:16;25.50;99.90
20712;DHT22;10517;50.742;4.224;2022-08-24T09:36:05;25.60;99.90
20712;DHT22;10517;50.742;4.224;2022-08-24T10:04:18;27.50;99.90
20712;DHT22;10517;50.742;4.224;2022-08-24T10:09:48;27.80;99.90
20712;DHT22;10517;50.742;4.224;2022-08-24T10:11:57;28.10;99.90
20712;DHT22;10517;50.742;4.224;2022-08-24T10:25:08;28.90;99.90
20712;DHT22;10517;50.742;4.224;2022-08-24T10:39:11;28.60;99.90
20712;DHT22;10517;50.742;4.224;2022-08-24T10:45:55;28.80;99.90
20712;DHT22;10517;50.742;4.224;2022-08-24T10:51:14;28.80;99.90
20712;DHT22;10517;50.742;4.224;2022-08-24T10:53:49;29.00;99.90
20712;DHT22;10517;50.742;4.224;2022-08-24T10:56:18;29.00;99.90
20712;DHT22;10517;50.742;4.224;2022-08-24T10:58:58;29.40;99.90
20712;DHT22;10517;50.742;4.224;2022-08-24T11:01:33;29.80;99.90
20712;DHT22;10517;50.742;4.224;2022-08-24T11:04:27;30.00;99.90
20712;DHT22;10517;50.742;4.224;2022-08-24T11:07:20;30.10;99.90
20712;DHT22;10517;50.742;4.224;2022-08-24T11:09:55;30.40;99.90
20712;DHT22;10517;50.742;4.224;2022-08-24T11:20:26;30.90;99.90
20712;DHT22;10517;50.742;4.224;2022-08-24T11:23:09;31.20;99.90
20712;DHT22;10517;50.742;4.224;2022-08-24T11:25:42;31.50;99.90
20712;DHT22;10517;50.742;4.224;2022-08-24T11:30:44;31.90;99.90
20712;DHT22;10517;50.742;4.224;2022-08-24T11:35:54;31.80;99.90
20712;DHT22;10517;50.742;4.224;2022-08-24T11:38:26;31.90;99.90
20712;DHT22;10517;50.742;4.224;2022-08-24T11:41:08;31.70;99.90
20712;DHT22;10517;50.742;4.224;2022-08-24T11:51:37;31.90;99.90
20712;DHT22;10517;50.742;4.224;2022-08-24T11:54:23;32.00;99.90
20712;DHT22;10517;50.742;4.224;2022-08-24T11:57:06;32.40;99.90
20712;DHT22;10517;50.742;4.224;2022-08-24T11:59:45;32.70;99.90
20712;DHT22;10517;50.742;4.224;2022-08-24T12:02:43;32.90;99.90
20712;DHT22;10517;50.742;4.224;2022-08-24T12:10:49;33.20;99.90
20712;DHT22;10517;50.742;4.224;2022-08-24T12:13:39;33.30;99.90
20712;DHT22;10517;50.742;4.224;2022-08-24T12:19:05;33.60;99.50
20712;DHT22;10517;50.742;4.224;2022-08-24T12:21:33;33.00;98.80
20712;DHT22;10517;50.742;4.224;2022-08-24T12:24:08;32.70;99.90
20712;DHT22;10517;50.742;4.224;2022-08-24T12:29:26;32.70;98.90
20712;DHT22;10517;50.742;4.224;2022-08-24T12:32:04;33.30;99.40
20712;DHT22;10517;50.742;4.224;2022-08-24T12:40:20;34.50;97.20
20712;DHT22;10517;50.742;4.224;2022-08-24T12:43:00;34.80;95.60
20712;DHT22;10517;50.742;4.224;2022-08-24T12:45:28;35.00;95.20
20712;DHT22;10517;50.742;4.224;2022-08-24T12:59:13;33.60;96.10
20712;DHT22;10517;50.742;4.224;2022-08-24T13:02:32;34.20;95.80
20712;DHT22;10517;50.742;4.224;2022-08-24T13:17:53;38.20;90.00
20712;DHT22;10517;50.742;4.224;2022-08-24T13:30:55;37.30;79.40
20712;DHT22;10517;50.742;4.224;2022-08-24T13:50:33;42.30;67.20
20712;DHT22;10517;50.742;4.224;2022-08-24T14:06:59;38.90;66.80
20712;DHT22;10517;50.742;4.224;2022-08-24T14:09:35;37.80;70.50
20712;DHT22;10517;50.742;4.224;2022-08-24T14:25:48;34.10;75.70
20712;DHT22;10517;50.742;4.224;2022-08-24T14:28:22;33.40;76.20
20712;DHT22;10517;50.742;4.224;2022-08-24T14:31:14;33.50;77.40
20712;DHT22;10517;50.742;4.224;2022-08-24T14:36:45;33.20;83.00
20712;DHT22;10517;50.742;4.224;2022-08-24T14:39:38;33.10;83.50
20712;DHT22;10517;50.742;4.224;2022-08-24T14:42:44;33.00;82.80
20712;DHT22;10517;50.742;4.224;2022-08-24T14:50:15;32.40;86.70
20712;DHT22;10517;50.742;4.224;2022-08-24T14:53:48;32.30;84.80
20712;DHT22;10517;50.742;4.224;2022-08-24T14:58:26;32.00;89.00
20712;DHT22;10517;50.742;4.224;2022-08-24T15:06:44;31.80;89.90
20712;DHT22;10517;50.742;4.224;2022-08-24T15:09:16;31.90;91.30
20712;DHT22;10517;50.742;4.224;2022-08-24T15:11:43;32.10;90.80
20712;DHT22;10517;50.742;4.224;2022-08-24T15:17:15;34.10;89.90
20712;DHT22;10517;50.742;4.224;2022-08-24T15:20:00;35.70;84.10
20712;DHT22;10517;50.742;4.224;2022-08-24T15:25:38;36.90;80.00
20712;DHT22;10517;50.742;4.224;2022-08-24T15:28:13;38.20;77.90
20712;DHT22;10517;50.742;4.224;2022-08-24T15:30:40;39.00;75.10
20712;DHT22;10517;50.742;4.224;2022-08-24T15:33:18;38.00;75.20
20712;DHT22;10517;50.742;4.224;2022-08-24T15:35:50;37.30;74.90
20712;DHT22;10517;50.742;4.224;2022-08-24T15:38:30;36.80;76.30
20712;DHT22;10517;50.742;4.224;2022-08-24T15:41:13;36.00;76.30
20712;DHT22;10517;50.742;4.224;2022-08-24T15:43:51;35.10;78.20
20712;DHT22;10517;50.742;4.224;2022-08-24T15:46:20;34.90;81.80
20712;DHT22;10517;50.742;4.224;2022-08-24T15:48:47;35.40;80.10
20712;DHT22;10517;50.742;4.224;2022-08-24T16:13:21;35.40;79.40
20712;DHT22;10517;50.742;4.224;2022-08-24T16:18:26;35.80;80.00
20712;DHT22;10517;50.742;4.224;2022-08-24T16:21:24;35.40;77.90
20712;DHT22;10517;50.742;4.224;2022-08-24T16:23:58;34.60;80.70
20712;DHT22;10517;50.742;4.224;2022-08-24T16:34:36;33.50;84.40
20712;DHT22;10517;50.742;4.224;2022-08-24T16:37:03;33.30;82.90
20712;DHT22;10517;50.742;4.224;2022-08-24T16:39:30;33.00;85.40
20712;DHT22;10517;50.742;4.224;2022-08-24T16:41:59;32.90;86.80
20712;DHT22;10517;50.742;4.224;2022-08-24T16:44:30;32.80;86.90
20712;DHT22;10517;50.742;4.224;2022-08-24T16:46:56;32.60;87.20
20712;DHT22;10517;50.742;4.224;2022-08-24T16:49:22;32.60;88.10
20712;DHT22;10517;50.742;4.224;2022-08-24T16:51:47;32.40;86.80
20712;DHT22;10517;50.742;4.224;2022-08-24T16:54:13;32.20;90.00
20712;DHT22;10517;50.742;4.224;2022-08-24T16:56:39;31.90;87.60
20712;DHT22;10517;50.742;4.224;2022-08-24T16:59:06;31.70;90.40
20712;DHT22;10517;50.742;4.224;2022-08-24T17:01:32;31.60;90.30
20712;DHT22;10517;50.742;4.224;2022-08-24T17:03:57;31.40;91.60
20712;DHT22;10517;50.742;4.224;2022-08-24T17:06:23;31.30;91.90
20712;DHT22;10517;50.742;4.224;2022-08-24T17:08:48;31.20;91.80
20712;DHT22;10517;50.742;4.224;2022-08-24T17:11:14;31.10;91.50
20712;DHT22;10517;50.742;4.224;2022-08-24T17:13:40;30.90;91.30
20712;DHT22;10517;50.742;4.224;2022-08-24T17:16:07;30.70;92.70
20712;DHT22;10517;50.742;4.224;2022-08-24T17:18:33;30.60;92.60
20712;DHT22;10517;50.742;4.224;2022-08-24T17:20:58;30.60;93.30
20712;DHT22;10517;50.742;4.224;2022-08-24T17:23:25;30.40;93.40
20712;DHT22;10517;50.742;4.224;2022-08-24T17:25:51;30.30;93.70
20712;DHT22;10517;50.742;4.224;2022-08-24T17:28:17;30.20;93.90
20712;DHT22;10517;50.742;4.224;2022-08-24T17:30:43;30.10;94.40
20712;DHT22;10517;50.742;4.224;2022-08-24T17:33:09;30.00;94.90
20712;DHT22;10517;50.742;4.224;2022-08-24T17:35:38;30.00;95.40
20712;DHT22;10517;50.742;4.224;2022-08-24T17:38:05;30.00;95.30
20712;DHT22;10517;50.742;4.224;2022-08-24T17:40:31;29.90;95.80
20712;DHT22;10517;50.742;4.224;2022-08-24T17:42:58;29.90;95.10
20712;DHT22;10517;50.742;4.224;2022-08-24T17:45:24;30.00;95.60
20712;DHT22;10517;50.742;4.224;2022-08-24T17:47:50;30.00;95.30
20712;DHT22;10517;50.742;4.224;2022-08-24T17:50:17;29.90;95.50
20712;DHT22;10517;50.742;4.224;2022-08-24T17:52:44;29.90;95.40
20712;DHT22;10517;50.742;4.224;2022-08-24T17:55:11;30.00;95.90
20712;DHT22;10517;50.742;4.224;2022-08-24T17:57:37;30.00;95.90
20712;DHT22;10517;50.742;4.224;2022-08-24T18:00:05;30.00;96.60
20712;DHT22;10517;50.742;4.224;2022-08-24T18:02:31;30.00;96.40
20712;DHT22;10517;50.742;4.224;2022-08-24T18:04:59;29.90;96.50
20712;DHT22;10517;50.742;4.224;2022-08-24T18:07:25;30.00;96.90
20712;DHT22;10517;50.742;4.224;2022-08-24T18:09:55;29.90;97.30
20712;DHT22;10517;50.742;4.224;2022-08-24T18:12:23;29.80;97.00
20712;DHT22;10517;50.742;4.224;2022-08-24T18:14:50;29.70;97.30
20712;DHT22;10517;50.742;4.224;2022-08-24T18:17:18;29.50;97.80
20712;DHT22;10517;50.742;4.224;2022-08-24T18:19:45;29.40;98.00
20712;DHT22;10517;50.742;4.224;2022-08-24T18:22:15;29.30;98.20
20712;DHT22;10517;50.742;4.224;2022-08-24T18:24:41;29.20;98.70
20712;DHT22;10517;50.742;4.224;2022-08-24T18:27:13;29.10;99.00
20712;DHT22;10517;50.742;4.224;2022-08-24T18:29:41;29.00;99.20
20712;DHT22;10517;50.742;4.224;2022-08-24T18:32:07;28.90;99.80
20712;DHT22;10517;50.742;4.224;2022-08-24T18:34:33;28.80;99.90
20712;DHT22;10517;50.742;4.224;2022-08-24T18:36:59;28.70;99.90
20712;DHT22;10517;50.742;4.224;2022-08-24T18:39:25;28.50;99.90
20712;DHT22;10517;50.742;4.224;2022-08-24T18:41:52;28.50;99.90
20712;DHT22;10517;50.742;4.224;2022-08-24T18:44:20;28.40;99.90
20712;DHT22;10517;50.742;4.224;2022-08-24T18:46:46;28.30;99.90
20712;DHT22;10517;50.742;4.224;2022-08-24T18:49:14;28.30;99.90
20712;DHT22;10517;50.742;4.224;2022-08-24T18:51:40;28.30;99.90
20712;DHT22;10517;50.742;4.224;2022-08-24T18:54:15;28.30;99.90
20712;DHT22;10517;50.742;4.224;2022-08-24T18:56:42;28.10;99.90
20712;DHT22;10517;50.742;4.224;2022-08-24T18:59:11;28.10;99.90
20712;DHT22;10517;50.742;4.224;2022-08-24T19:01:39;28.10;99.90
20712;DHT22;10517;50.742;4.224;2022-08-24T19:04:24;28.00;99.90
20712;DHT22;10517;50.742;4.224;2022-08-24T19:06:50;28.00;99.90
20712;DHT22;10517;50.742;4.224;2022-08-24T19:09:16;27.90;99.90
20712;DHT22;10517;50.742;4.224;2022-08-24T19:11:42;27.80;99.90
20712;DHT22;10517;50.742;4.224;2022-08-24T19:14:08;27.70;99.90
20712;DHT22;10517;50.742;4.224;2022-08-24T19:16:34;27.60;99.90
20712;DHT22;10517;50.742;4.224;2022-08-24T19:19:01;27.50;99.90
20712;DHT22;10517;50.742;4.224;2022-08-24T19:21:30;27.50;99.90
20712;DHT22;10517;50.742;4.224;2022-08-24T19:23:59;27.40;99.90
20712;DHT22;10517;50.742;4.224;2022-08-24T19:26:25;27.40;99.90
20712;DHT22;10517;50.742;4.224;2022-08-24T19:28:51;27.30;99.90
20712;DHT22;10517;50.742;4.224;2022-08-24T19:31:20;27.30;99.90
20712;DHT22;10517;50.742;4.224;2022-08-24T19:33:46;27.20;99.90
20712;DHT22;10517;50.742;4.224;2022-08-24T19:36:13;27.20;99.90
20712;DHT22;10517;50.742;4.224;2022-08-24T19:38:39;27.10;99.90
20712;DHT22;10517;50.742;4.224;2022-08-24T19:41:05;27.00;99.90
20712;DHT22;10517;50.742;4.224;2022-08-24T19:43:32;26.90;99.90
20712;DHT22;10517;50.742;4.224;2022-08-24T19:45:58;26.90;99.90
20712;DHT22;10517;50.742;4.224;2022-08-24T19:48:27;26.90;99.90
20712;DHT22;10517;50.742;4.224;2022-08-24T19:50:53;26.80;99.90
20712;DHT22;10517;50.742;4.224;2022-08-24T19:53:19;26.70;99.90
20712;DHT22;10517;50.742;4.224;2022-08-24T19:55:45;26.60;99.90
20712;DHT22;10517;50.742;4.224;2022-08-24T20:01:02;26.30;99.90
20712;DHT22;10517;50.742;4.224;2022-08-24T20:03:27;26.20;99.90
20712;DHT22;10517;50.742;4.224;2022-08-24T20:05:53;26.10;99.90
20712;DHT22;10517;50.742;4.224;2022-08-24T20:08:20;26.00;99.90
20712;DHT22;10517;50.742;4.224;2022-08-24T20:10:46;25.90;99.90
20712;DHT22;10517;50.742;4.224;2022-08-24T20:13:12;25.90;99.90